Time;durP1;ratioP1;P1;durP2;ratioP2;P2;SDS_P1;SDS_P2;PMS_P1;PMS_P2;Temp;Humidity;BMP_temperature;BMP_pressure;BME280_temperature;BME280_humidity;BME280_pressure;Samples;Min_cycle;Max_cycle;Signal;HPM_P1;HPM_P2
2023/06/20 00:00:48;;;;;;;19.48;16.65;;;;;;;19.96;100.00;100721.91;4989021;28;20050;-66
2023/06/20 00:03:15;;;;;;;21.10;16.33;;;;;;;19.93;100.00;100725.09;4992024;28;20065;-66
2023/06/20 00:05:43;;;;;;;19.17;16.80;;;;;;;19.91;100.00;100727.19;4992011;28;20104;-66
2023/06/20 00:08:10;;;;;;;20.00;16.95;;;;;;;19.90;100.00;100720.09;4992636;28;20046;-66
2023/06/20 00:10:37;;;;;;;20.30;16.42;;;;;;;19.87;100.00;100719.69;4992160;28;20050;-66
2023/06/20 00:13:03;;;;;;;23.00;17.02;;;;;;;19.87;100.00;100722.44;4992011;28;20441;-66
2023/06/20 00:15:30;;;;;;;19.85;16.60;;;;;;;19.85;100.00;100727.25;4991929;28;20050;-65
2023/06/20 00:18:00;;;;;;;20.10;17.48;;;;;;;19.81;100.00;100721.41;4974829;28;20079;-66
2023/06/20 00:20:28;;;;;;;19.50;16.33;;;;;;;19.79;100.00;100718.06;4991123;28;20050;-65
2023/06/20 00:22:55;;;;;;;21.55;17.38;;;;;;;19.75;100.00;100735.06;4989730;28;20050;-65
2023/06/20 00:25:22;;;;;;;18.33;16.40;;;;;;;19.72;100.00;100720.00;4990540;28;20050;-66
2023/06/20 00:27:49;;;;;;;23.25;17.30;;;;;;;19.68;100.00;100718.78;4991665;28;20449;-66
2023/06/20 00:30:16;;;;;;;23.60;17.05;;;;;;;19.66;100.00;100719.00;4974627;28;20116;-66
2023/06/20 00:32:42;;;;;;;22.60;18.75;;;;;;;19.66;100.00;100712.72;4991133;28;20387;-66
2023/06/20 00:35:09;;;;;;;25.48;19.63;;;;;;;19.60;100.00;100711.69;4992157;28;20438;-65
2023/06/20 00:37:38;;;;;;;23.85;20.85;;;;;;;19.33;100.00;100713.75;4991543;28;20096;-65
2023/06/20 00:40:07;;;;;;;25.00;19.83;;;;;;;18.95;100.00;100703.69;4991284;28;20570;-65
2023/06/20 00:42:34;;;;;;;21.98;19.50;;;;;;;18.91;100.00;100693.44;4990942;28;20050;-65
2023/06/20 00:45:01;;;;;;;24.65;19.77;;;;;;;18.92;100.00;100693.25;4990915;28;20050;-66
2023/06/20 00:47:28;;;;;;;24.42;21.73;;;;;;;18.75;100.00;100695.59;4990677;28;20076;-66
2023/06/20 00:49:55;;;;;;;28.20;20.35;;;;;;;18.50;100.00;100692.75;4991329;28;20077;-66
2023/06/20 00:52:23;;;;;;;23.48;20.55;;;;;;;18.43;100.00;100697.38;4991456;28;20050;-66
2023/06/20 00:54:49;;;;;;;26.60;21.27;;;;;;;18.45;100.00;100689.03;4991252;28;20050;-66
2023/06/20 00:57:18;;;;;;;26.73;20.40;;;;;;;18.43;100.00;100685.69;4991435;28;20046;-66
2023/06/20 00:59:49;;;;;;;23.48;20.85;;;;;;;18.37;100.00;100687.34;4990930;28;20465;-66
2023/06/20 01:02:16;;;;;;;;;;;;;;;18.25;100.00;100676.31;4991610;28;20097;-66
2023/06/20 01:04:45;;;;;;;25.23;20.38;;;;;;;18.34;100.00;100674.19;4990943;28;19929;-66
2023/06/20 01:07:57;;;;;;;25.50;21.17;;;;;;;18.39;100.00;100668.16;4991163;28;20047;-66
2023/06/20 01:10:33;;;;;;;26.20;22.42;;;;;;;18.24;100.00;100666.50;4990679;28;20042;-66
2023/06/20 01:13:23;;;;;;;30.15;22.70;;;;;;;18.15;100.00;100664.22;4990121;28;20348;-66
2023/06/20 01:15:59;;;;;;;25.70;20.90;;;;;;;18.28;100.00;100673.19;4990979;28;20046;-66
2023/06/20 01:19:05;;;;;;;26.25;21.75;;;;;;;18.08;100.00;100667.75;4990887;28;20046;-66
2023/06/20 01:21:40;;;;;;;25.73;21.48;;;;;;;18.17;100.00;100670.25;4990906;28;20109;-66
2023/06/20 01:24:18;;;;;;;29.20;23.30;;;;;;;18.18;100.00;100658.38;4990146;28;20058;-66
2023/06/20 01:26:54;;;;;;;25.23;21.17;;;;;;;18.22;100.00;100667.75;4990594;28;20049;-66
2023/06/20 01:29:32;;;;;;;26.40;21.65;;;;;;;18.37;100.00;100665.63;4990813;28;20053;-66
2023/06/20 01:32:03;;;;;;;23.08;20.45;;;;;;;18.44;100.00;100671.03;4990952;28;20486;-66
2023/06/20 01:34:32;;;;;;;26.47;19.93;;;;;;;18.54;100.00;100676.84;4990882;28;20050;-66
2023/06/20 01:37:01;;;;;;;25.67;19.65;;;;;;;18.64;100.00;100679.13;4990920;28;20420;-67
2023/06/20 01:39:39;;;;;;;22.95;19.38;;;;;;;18.63;100.00;100672.88;4989845;28;20069;-66
2023/06/20 01:42:06;;;;;;;25.13;20.23;;;;;;;18.68;100.00;100673.03;4991072;28;20046;-66
2023/06/20 01:44:35;;;;;;;25.08;20.50;;;;;;;18.72;100.00;100678.88;4990494;28;20065;-66
2023/06/20 01:47:04;;;;;;;22.33;19.90;;;;;;;18.74;100.00;100676.78;4990803;28;20061;-66
2023/06/20 01:49:32;;;;;;;28.88;21.67;;;;;;;18.77;100.00;100671.75;4990183;28;20085;-66
2023/06/20 01:51:59;;;;;;;25.05;21.38;;;;;;;18.75;100.00;100662.16;4988284;28;20092;-66
2023/06/20 01:54:29;;;;;;;23.88;21.38;;;;;;;18.50;100.00;100665.59;4990053;28;20098;-66
2023/06/20 01:56:57;;;;;;;23.60;20.35;;;;;;;18.59;100.00;100662.66;5003723;28;20517;-66
2023/06/20 01:59:26;;;;;;;29.70;22.38;;;;;;;18.52;100.00;100657.25;4988983;28;20129;-66
2023/06/20 02:01:54;;;;;;;23.48;20.67;;;;;;;18.46;100.00;100656.19;4988850;28;20054;-66
2023/06/20 02:04:22;;;;;;;27.13;22.60;;;;;;;18.26;100.00;100658.13;4989300;28;20101;-66
2023/06/20 02:06:50;;;;;;;25.38;21.10;;;;;;;18.31;100.00;100658.34;4990062;28;20078;-66
2023/06/20 02:09:18;;;;;;;29.33;22.70;;;;;;;18.34;100.00;100657.91;4990625;28;20046;-67
2023/06/20 02:11:46;;;;;;;26.90;21.38;;;;;;;18.38;100.00;100659.16;4990068;28;20054;-66
2023/06/20 02:14:14;;;;;;;24.90;21.38;;;;;;;18.45;100.00;100662.69;4990611;28;20050;-67
2023/06/20 02:16:42;;;;;;;30.45;21.63;;;;;;;18.43;100.00;100661.22;4990127;28;20046;-66
2023/06/20 02:19:09;;;;;;;27.17;22.65;;;;;;;18.43;100.00;100658.50;4990118;28;20065;-66
2023/06/20 02:21:38;;;;;;;27.40;21.50;;;;;;;18.49;100.00;100661.22;4990352;28;20402;-66
2023/06/20 02:24:06;;;;;;;25.92;21.40;;;;;;;18.52;100.00;100662.69;4990487;28;20046;-66
2023/06/20 02:26:38;;;;;;;24.52;20.42;;;;;;;18.51;100.00;100666.41;5007807;28;20109;-66
2023/06/20 02:29:07;;;;;;;24.08;20.17;;;;;;;18.50;100.00;100662.88;4992890;28;20046;-66
2023/06/20 02:31:38;;;;;;;24.48;20.33;;;;;;;18.49;100.00;100663.94;4993278;28;20065;-66
2023/06/20 02:34:08;;;;;;;28.63;21.80;;;;;;;18.54;100.00;100666.00;4993988;28;20057;-66
2023/06/20 02:36:35;;;;;;;23.60;21.02;;;;;;;18.54;100.00;100672.25;4992967;28;20561;-66
2023/06/20 02:39:04;;;;;;;26.67;21.38;;;;;;;18.54;100.00;100677.69;4993913;28;20046;-66
2023/06/20 02:41:31;;;;;;;23.10;20.45;;;;;;;18.57;100.00;100670.16;4993661;28;20046;-66
2023/06/20 02:43:57;;;;;;;23.35;20.00;;;;;;;18.55;100.00;100678.56;4993144;28;20054;-66
2023/06/20 02:46:30;;;;;;;23.67;20.48;;;;;;;18.55;100.00;100670.41;4993289;28;20097;-66
2023/06/20 02:49:15;;;;;;;22.88;20.13;;;;;;;18.57;100.00;100667.44;4993648;28;20054;-66
2023/06/20 02:51:56;;;;;;;27.98;19.60;;;;;;;18.57;100.00;100673.72;4993632;28;20461;-66
2023/06/20 02:54:34;;;;;;;23.98;19.52;;;;;;;18.62;100.00;100675.78;4993340;28;20047;-66
2023/06/20 02:57:05;;;;;;;25.52;20.05;;;;;;;18.62;100.00;100679.34;4993584;28;20046;-66
2023/06/20 02:59:36;;;;;;;21.37;19.13;;;;;;;18.63;100.00;100677.47;4992730;28;20050;-66
2023/06/20 03:02:06;;;;;;;24.93;20.90;;;;;;;18.62;100.00;100668.50;4993563;28;20054;-66
2023/06/20 03:04:34;;;;;;;26.30;21.85;;;;;;;18.61;100.00;100671.41;4991537;28;20125;-66
2023/06/20 03:07:02;;;;;;;25.67;21.95;;;;;;;18.63;100.00;100666.59;4991047;28;20054;-66
2023/06/20 03:09:32;;;;;;;23.40;20.90;;;;;;;18.60;100.00;100669.75;4992324;28;20108;-66
2023/06/20 03:11:59;;;;;;;28.58;23.58;;;;;;;18.43;100.00;100675.63;4992730;28;20105;-66
2023/06/20 03:14:26;;;;;;;28.08;22.08;;;;;;;18.48;100.00;100675.84;4993148;28;20042;-66
2023/06/20 03:16:52;;;;;;;29.67;23.13;;;;;;;18.35;100.00;100686.75;4967723;28;20054;-66
2023/06/20 03:19:19;;;;;;;30.38;21.50;;;;;;;18.38;100.00;100691.75;4993089;28;20463;-66
2023/06/20 03:21:45;;;;;;;23.55;20.77;;;;;;;18.41;100.00;100696.78;4993116;28;20072;-66
2023/06/20 03:24:12;;;;;;;27.65;20.65;;;;;;;18.44;100.00;100703.63;4992961;28;20096;-66
2023/06/20 03:26:38;;;;;;;23.80;20.08;;;;;;;18.48;100.00;100696.72;4990411;28;20042;-66
2023/06/20 03:29:05;;;;;;;28.88;20.88;;;;;;;18.50;100.00;100700.06;4993071;28;20063;-65
2023/06/20 03:31:32;;;;;;;27.25;20.85;;;;;;;18.58;100.00;100688.13;4992130;28;20097;-66
2023/06/20 03:33:58;;;;;;;24.80;20.13;;;;;;;18.59;100.00;100687.94;4992391;28;20062;-66
2023/06/20 03:36:25;;;;;;;28.98;20.90;;;;;;;18.61;100.00;100704.84;4992757;28;20046;-66
2023/06/20 03:38:51;;;;;;;25.08;21.52;;;;;;;18.66;100.00;100694.19;4993086;28;20480;-65
2023/06/20 03:41:18;;;;;;;28.52;21.77;;;;;;;18.73;100.00;100696.88;4992890;28;20095;-66
2023/06/20 03:43:44;;;;;;;27.48;23.67;;;;;;;18.59;100.00;100689.81;4992102;28;20073;-65
2023/06/20 03:46:11;;;;;;;26.55;23.45;;;;;;;18.41;100.00;100693.19;4993322;28;20100;-66
2023/06/20 03:48:37;;;;;;;27.50;23.15;;;;;;;18.50;100.00;100700.91;4992870;28;20081;-66
2023/06/20 03:51:04;;;;;;;26.45;23.70;;;;;;;18.61;100.00;100698.56;4992709;28;20125;-66
2023/06/20 03:53:30;;;;;;;25.52;22.60;;;;;;;18.62;100.00;100700.22;4992562;28;20042;-66
2023/06/20 03:55:57;;;;;;;27.77;22.20;;;;;;;18.54;100.00;100702.13;4991977;28;20051;-66
2023/06/20 03:58:24;;;;;;;26.10;22.25;;;;;;;18.63;100.00;100699.22;4991708;28;20042;-66
2023/06/20 04:00:50;;;;;;;26.60;22.80;;;;;;;18.66;100.00;100704.22;4990737;28;20068;-66
2023/06/20 04:03:17;;;;;;;26.27;22.77;;;;;;;18.58;100.00;100699.84;4991580;28;20054;-65
2023/06/20 04:05:44;;;;;;;29.13;23.77;;;;;;;18.67;100.00;100697.72;4992382;28;20057;-65
2023/06/20 04:08:10;;;;;;;26.75;22.98;;;;;;;18.46;100.00;100704.28;4991856;28;20042;-65
2023/06/20 04:10:37;;;;;;;25.80;23.00;;;;;;;18.58;100.00;100709.88;4992644;28;20050;-65
2023/06/20 04:13:04;;;;;;;27.30;23.25;;;;;;;18.65;100.00;100708.78;4992611;28;20058;-65
2023/06/20 04:15:30;;;;;;;31.15;25.10;;;;;;;18.65;100.00;100707.97;4991663;28;20096;-65
2023/06/20 04:17:57;;;;;;;30.90;25.20;;;;;;;18.55;100.00;100711.97;4992517;28;20108;-66
2023/06/20 04:20:24;;;;;;;28.60;24.30;;;;;;;18.65;100.00;100716.13;4991598;28;20042;-66
2023/06/20 04:22:50;;;;;;;30.40;24.80;;;;;;;18.59;100.00;100717.81;4992240;28;20050;-67
2023/06/20 04:25:17;;;;;;;28.60;24.65;;;;;;;18.74;100.00;100720.28;4991494;28;20108;-66
2023/06/20 04:27:43;;;;;;;28.98;25.08;;;;;;;18.77;100.00;100726.13;4990013;28;20074;-67
2023/06/20 04:30:11;;;;;;;31.95;24.55;;;;;;;18.85;100.00;100724.22;4992525;28;20046;-66
2023/06/20 04:32:37;;;;;;;30.98;24.13;;;;;;;18.96;100.00;100724.38;4990625;28;20066;-67
2023/06/20 04:35:05;;;;;;;29.92;24.05;;;;;;;18.85;100.00;100725.03;4990687;28;20046;-67
2023/06/20 04:37:31;;;;;;;30.05;24.58;;;;;;;19.02;100.00;100715.38;4991800;28;20050;-66
2023/06/20 04:39:58;;;;;;;34.88;24.25;;;;;;;19.06;100.00;100723.09;4991817;28;20129;-65
2023/06/20 04:42:25;;;;;;;27.65;22.48;;;;;;;19.01;100.00;100721.88;4991077;28;20045;-65
2023/06/20 04:44:51;;;;;;;29.98;23.40;;;;;;;19.09;100.00;100719.97;4991476;28;20050;-65
2023/06/20 04:47:18;;;;;;;30.25;23.48;;;;;;;19.09;100.00;100725.38;4989630;28;20142;-65
2023/06/20 04:49:45;;;;;;;28.15;24.27;;;;;;;19.15;100.00;100727.25;4991680;28;20100;-66
2023/06/20 04:52:11;;;;;;;28.08;23.17;;;;;;;19.09;100.00;100730.81;4992201;28;20070;-66
2023/06/20 04:54:38;;;;;;;29.45;24.77;;;;;;;19.08;100.00;100732.72;4991632;28;20375;-66
2023/06/20 04:57:04;;;;;;;32.92;25.02;;;;;;;18.88;100.00;100727.31;4991272;28;20050;-66
2023/06/20 04:59:31;;;;;;;32.25;24.27;;;;;;;18.90;100.00;100724.41;4991458;28;20050;-66
2023/06/20 05:01:57;;;;;;;30.02;26.33;;;;;;;18.82;100.00;100728.19;4991268;28;20124;-66
2023/06/20 05:04:24;;;;;;;31.90;24.50;;;;;;;18.91;100.00;100728.78;5004113;28;20104;-66
2023/06/20 05:06:51;;;;;;;33.13;23.20;;;;;;;18.94;100.00;100723.78;5010968;28;20115;-66
2023/06/20 05:09:17;;;;;;;30.10;23.70;;;;;;;19.06;100.00;100733.97;5010728;28;20103;-66
2023/06/20 05:11:44;;;;;;;28.88;23.17;;;;;;;19.03;100.00;100735.22;5010849;28;20103;-65
2023/06/20 05:14:10;;;;;;;35.08;23.08;;;;;;;19.10;100.00;100735.22;5011306;28;20104;-66
2023/06/20 05:16:37;;;;;;;26.08;21.00;;;;;;;19.11;100.00;100742.34;5010875;28;20096;-66
2023/06/20 05:19:04;;;;;;;31.73;21.80;;;;;;;19.15;100.00;100743.56;5010788;28;20453;-65
2023/06/20 05:21:30;;;;;;;30.00;22.13;;;;;;;19.23;100.00;100746.03;5009762;28;20046;-66
2023/06/20 05:23:57;;;;;;;37.30;27.88;;;;;;;19.23;100.00;100735.97;5010704;28;20116;-66
2023/06/20 05:26:23;;;;;;;36.63;23.42;;;;;;;19.25;100.00;100744.75;5009601;28;20137;-66
2023/06/20 05:28:50;;;;;;;26.65;21.58;;;;;;;19.26;100.00;100746.44;5008565;28;20108;-67
2023/06/20 05:31:16;;;;;;;31.23;23.00;;;;;;;19.31;100.00;100747.66;5009942;28;20074;-66
2023/06/20 05:33:43;;;;;;;27.08;20.98;;;;;;;19.38;100.00;100743.00;5010573;28;20121;-66
2023/06/20 05:36:09;;;;;;;26.05;20.17;;;;;;;19.43;100.00;100740.47;4993790;28;20050;-66
2023/06/20 05:38:36;;;;;;;32.67;21.92;;;;;;;19.43;100.00;100741.31;5010497;28;20065;-66
2023/06/20 05:41:03;;;;;;;35.50;23.52;;;;;;;19.58;100.00;100741.00;5009855;28;20058;-67
2023/06/20 05:43:30;;;;;;;43.25;21.30;;;;;;;19.62;100.00;100746.84;5010621;28;20088;-66
2023/06/20 05:45:58;;;;;;;36.45;22.83;;;;;;;19.53;100.00;100740.00;5010683;28;20054;-66
2023/06/20 05:48:25;;;;;;;31.80;22.70;;;;;;;19.46;100.00;100749.03;5010372;28;20494;-66
2023/06/20 05:50:52;;;;;;;28.70;21.80;;;;;;;19.54;100.00;100747.94;4993026;28;20073;-67
2023/06/20 05:53:20;;;;;;;27.70;21.45;;;;;;;19.53;100.00;100750.91;5010128;28;20045;-66
2023/06/20 05:55:50;;;;;;;30.77;21.77;;;;;;;19.59;100.00;100748.13;5010166;28;20113;-66
2023/06/20 05:58:18;;;;;;;28.42;20.10;;;;;;;19.83;100.00;100757.44;5010982;28;20498;-66
2023/06/20 06:00:45;;;;;;;28.20;23.13;;;;;;;19.87;100.00;100758.66;5013180;28;20045;-65
2023/06/20 06:03:13;;;;;;;30.30;22.55;;;;;;;19.99;100.00;100764.19;5014145;28;20080;-67
2023/06/20 06:05:40;;;;;;;27.65;22.98;;;;;;;19.75;100.00;100760.41;5012664;28;20130;-67
2023/06/20 06:08:06;;;;;;;35.40;23.17;;;;;;;19.99;100.00;100763.38;5013996;28;20046;-66
2023/06/20 06:10:33;;;;;;;27.65;22.85;;;;;;;19.79;100.00;100761.63;5011695;28;21595;-67
2023/06/20 06:13:00;;;;;;;29.60;22.75;;;;;;;19.84;100.00;100759.09;5013008;28;20108;-66
2023/06/20 06:15:26;;;;;;;34.22;23.05;;;;;;;20.01;100.00;100769.44;5012918;28;20081;-67
2023/06/20 06:17:53;;;;;;;36.13;22.27;;;;;;;20.12;100.00;100769.53;5013706;28;20057;-66
2023/06/20 06:20:20;;;;;;;27.80;21.65;;;;;;;20.16;100.00;100761.75;5013633;28;20129;-66
2023/06/20 06:22:46;;;;;;;30.58;23.42;;;;;;;19.97;100.00;100766.31;4995033;28;20046;-66
2023/06/20 06:25:13;;;;;;;30.27;24.17;;;;;;;20.12;100.00;100763.25;5013148;28;20046;-66
2023/06/20 06:27:41;;;;;;;32.67;23.88;;;;;;;20.20;100.00;100763.81;5013631;28;20049;-66
2023/06/20 06:30:08;;;;;;;32.72;23.42;;;;;;;20.35;100.00;100758.03;5013692;28;20041;-66
2023/06/20 06:32:36;;;;;;;28.88;21.63;;;;;;;20.71;100.00;100766.50;5011965;28;20045;-68
2023/06/20 06:35:05;;;;;;;28.33;22.75;;;;;;;20.87;100.00;100758.56;5012324;28;20054;-67
2023/06/20 06:37:32;;;;;;;29.35;23.08;;;;;;;21.02;100.00;100755.44;4993389;28;20106;-67
2023/06/20 06:39:59;;;;;;;31.98;21.50;;;;;;;21.28;100.00;100761.63;4994057;28;20109;-70
2023/06/20 06:42:26;;;;;;;37.60;23.10;;;;;;;21.15;100.00;100754.47;4993921;28;20052;-70
2023/06/20 06:44:53;;;;;;;36.65;22.40;;;;;;;21.05;100.00;100765.06;4994108;28;20054;-71
2023/06/20 06:47:20;;;;;;;27.70;21.92;;;;;;;21.28;100.00;100767.91;4993858;28;20088;-71
2023/06/20 06:49:46;;;;;;;30.73;21.45;;;;;;;21.49;100.00;100765.75;4993976;28;20042;-70
2023/06/20 06:52:13;;;;;;;27.02;21.80;;;;;;;21.49;100.00;100763.03;4993421;28;20042;-71
2023/06/20 06:54:40;;;;;;;31.48;23.88;;;;;;;21.37;100.00;100769.28;4993837;28;20066;-70
2023/06/20 06:57:06;;;;;;;32.45;22.95;;;;;;;21.52;100.00;100765.28;4994001;28;20052;-71
2023/06/20 06:59:33;;;;;;;28.30;19.85;;;;;;;21.68;100.00;100758.34;4992928;28;20133;-71
2023/06/20 07:01:59;;;;;;;29.50;20.92;;;;;;;21.90;100.00;100756.75;4992393;28;20606;-69
2023/06/20 07:04:26;;;;;;;30.85;24.38;;;;;;;21.48;100.00;100758.63;4992215;28;20074;-70
2023/06/20 07:06:52;;;;;;;28.95;23.33;;;;;;;21.49;100.00;100757.56;4993725;28;20054;-71
2023/06/20 07:09:19;;;;;;;29.58;23.42;;;;;;;21.21;100.00;100755.44;4992994;28;20039;-70
2023/06/20 07:11:45;;;;;;;28.40;23.67;;;;;;;21.19;100.00;100754.84;4992684;28;20042;-70
2023/06/20 07:14:12;;;;;;;39.78;23.90;;;;;;;21.37;100.00;100758.34;4993324;28;20470;-69
2023/06/20 07:16:39;;;;;;;30.88;24.42;;;;;;;21.12;100.00;100747.56;4991429;28;20073;-70
2023/06/20 07:19:20;;;;;;;32.35;22.58;;;;;;;21.23;100.00;100756.03;4993377;28;20355;-71
2023/06/20 07:21:47;;;;;;;30.08;23.83;;;;;;;21.40;100.00;100751.63;4993444;28;20115;-71
2023/06/20 07:24:13;;;;;;;31.38;20.10;;;;;;;21.67;100.00;100753.94;4993250;28;20046;-66
2023/06/20 07:26:40;;;;;;;33.10;25.13;;;;;;;21.45;100.00;100750.91;4993318;28;20443;-71
2023/06/20 07:29:07;;;;;;;28.83;22.50;;;;;;;21.49;100.00;100765.75;4993028;28;20038;-70
2023/06/20 07:31:33;;;;;;;36.45;23.67;;;;;;;21.60;100.00;100767.72;4994114;28;20050;-70
2023/06/20 07:34:00;;;;;;;32.83;22.17;;;;;;;21.83;100.00;100786.91;4993919;28;20057;-70
2023/06/20 07:36:26;;;;;;;39.97;24.55;;;;;;;21.77;100.00;100796.03;5006032;28;20050;-71
2023/06/20 07:38:53;;;;;;;34.03;23.48;;;;;;;21.83;100.00;100784.16;5013081;28;20050;-71
2023/06/20 07:41:19;;;;;;;33.85;24.45;;;;;;;22.10;100.00;100775.56;5012920;28;20056;-70
2023/06/20 07:43:46;;;;;;;36.38;25.13;;;;;;;22.02;100.00;100770.44;5012650;28;20049;-71
2023/06/20 07:46:13;;;;;;;33.35;26.27;;;;;;;22.06;100.00;100755.25;5012920;28;20046;-71
2023/06/20 07:48:39;;;;;;;33.95;24.05;;;;;;;21.92;100.00;100760.09;5012742;28;20061;-71
2023/06/20 07:51:06;;;;;;;35.22;25.13;;;;;;;21.79;100.00;100760.28;5012716;28;20042;-71
2023/06/20 07:53:32;;;;;;;30.80;24.38;;;;;;;21.94;100.00;100757.13;5012725;28;20050;-71
2023/06/20 07:55:59;;;;;;;32.75;22.15;;;;;;;22.19;100.00;100757.75;5012793;28;20559;-71
2023/06/20 07:58:26;;;;;;;33.72;25.42;;;;;;;22.16;100.00;100760.97;5012707;28;20145;-71
2023/06/20 08:00:56;;;;;;;26.52;23.48;;;;;;;22.18;100.00;100761.53;5012592;28;20050;-71
2023/06/20 08:03:25;;;;;;;36.00;23.40;;;;;;;22.19;100.00;100768.69;5012396;28;20477;-71
2023/06/20 08:05:52;;;;;;;32.47;24.67;;;;;;;22.01;100.00;100768.75;5012627;28;20525;-71
2023/06/20 08:08:18;;;;;;;32.55;24.33;;;;;;;21.84;100.00;100774.09;5012391;28;20442;-71
2023/06/20 08:10:45;;;;;;;34.60;25.40;;;;;;;21.92;100.00;100765.56;5012244;28;20070;-70
2023/06/20 08:13:11;;;;;;;34.47;23.73;;;;;;;22.07;100.00;100765.09;5012708;28;20046;-71
2023/06/20 08:15:38;;;;;;;39.00;24.23;;;;;;;21.93;100.00;100761.75;5012367;28;20125;-72
2023/06/20 08:18:05;;;;;;;34.70;23.63;;;;;;;21.90;100.00;100766.84;5012673;28;20390;-74
2023/06/20 08:20:31;;;;;;;33.88;23.90;;;;;;;21.72;100.00;100770.47;5012296;28;20049;-75
2023/06/20 08:22:58;;;;;;;24.98;21.55;;;;;;;21.68;100.00;100770.09;5011289;28;20565;-74
2023/06/20 08:25:24;;;;;;;31.08;22.48;;;;;;;21.95;100.00;100775.19;5012025;28;20042;-74
2023/06/20 08:27:52;;;;;;;38.63;24.02;;;;;;;21.93;100.00;100778.13;5012232;28;20054;-75
2023/06/20 08:30:35;;;;;;;36.92;24.08;;;;;;;21.82;100.00;100787.97;5011159;28;20104;-73
2023/06/20 08:33:02;;;;;;;34.05;24.42;;;;;;;21.92;100.00;100786.59;5012207;28;20061;-72
2023/06/20 08:35:29;;;;;;;29.55;21.45;;;;;;;22.09;100.00;100787.56;5007041;28;20053;-73
2023/06/20 08:37:55;;;;;;;38.78;23.92;;;;;;;22.01;100.00;100785.16;4992531;28;20050;-74
2023/06/20 08:40:22;;;;;;;31.27;22.90;;;;;;;22.10;100.00;100783.75;4992835;28;20514;-71
2023/06/20 08:42:49;;;;;;;35.70;24.20;;;;;;;22.08;100.00;100784.00;4992680;28;20054;-71
2023/06/20 08:45:16;;;;;;;33.92;25.63;;;;;;;21.92;100.00;100794.78;4992466;28;20050;-71
2023/06/20 08:47:42;;;;;;;29.92;22.65;;;;;;;22.13;100.00;100793.38;4991490;28;20046;-71
2023/06/20 08:50:10;;;;;;;30.25;23.33;;;;;;;22.10;100.00;100800.16;4992563;28;20129;-72
2023/06/20 08:52:49;;;;;;;29.98;23.35;;;;;;;22.15;100.00;100819.41;4992638;28;20050;-74
2023/06/20 08:55:16;;;;;;;32.42;23.17;;;;;;;22.09;100.00;100825.81;4991678;28;20042;-71
2023/06/20 08:57:46;;;;;;;43.55;23.52;;;;;;;22.09;100.00;100823.09;4992659;28;20449;-72
2023/06/20 09:00:20;;;;;;;34.08;23.08;;;;;;;22.02;100.00;100833.28;4992148;28;20042;-73
2023/06/20 09:02:48;;;;;;;39.13;23.52;;;;;;;21.98;100.00;100840.25;4991525;28;20110;-71
2023/06/20 09:05:15;;;;;;;30.50;22.65;;;;;;;21.96;100.00;100847.88;4992090;28;20383;-70
2023/06/20 09:07:42;;;;;;;37.40;23.88;;;;;;;21.92;100.00;100852.13;4992509;28;20413;-73
2023/06/20 09:10:11;;;;;;;35.45;24.27;;;;;;;21.72;100.00;100866.03;4991887;28;20051;-72
2023/06/20 09:12:54;;;;;;;33.65;24.60;;;;;;;21.66;100.00;100889.63;4991763;28;20117;-72
2023/06/20 09:15:23;;;;;;;36.97;26.17;;;;;;;21.54;100.00;100894.19;4991664;28;20044;-72
2023/06/20 09:17:51;;;;;;;37.85;24.15;;;;;;;21.43;100.00;100890.34;4991656;28;20050;-72
2023/06/20 09:20:18;;;;;;;30.52;22.67;;;;;;;21.22;100.00;100897.09;4991470;28;20071;-70
2023/06/20 09:22:44;;;;;;;30.27;22.67;;;;;;;21.22;100.00;100896.25;4991631;28;20355;-66
2023/06/20 09:25:12;;;;;;;30.23;22.25;;;;;;;21.05;100.00;100896.81;4992024;28;20050;-73
2023/06/20 09:27:41;;;;;;;35.22;21.95;;;;;;;21.05;100.00;100898.72;4991104;28;20054;-72
2023/06/20 09:30:08;;;;;;;47.53;22.50;;;;;;;20.96;100.00;100908.25;4991716;28;20069;-73
2023/06/20 09:32:36;;;;;;;40.25;24.08;;;;;;;20.86;100.00;100901.38;4990555;28;20055;-73
2023/06/20 09:35:04;;;;;;;38.38;24.25;;;;;;;20.71;100.00;100914.53;4996751;28;20061;-72
2023/06/20 09:37:43;;;;;;;27.75;22.27;;;;;;;20.63;100.00;100921.13;5014607;28;20069;-69
2023/06/20 09:40:12;;;;;;;31.45;24.52;;;;;;;20.58;100.00;100933.72;5014814;28;20164;-73
2023/06/20 09:42:40;;;;;;;30.42;23.55;;;;;;;20.55;100.00;100942.34;5014665;28;20042;-71
2023/06/20 09:45:09;;;;;;;29.70;24.25;;;;;;;20.49;100.00;100937.78;5014609;28;20128;-71
2023/06/20 09:47:38;;;;;;;27.15;23.75;;;;;;;20.36;100.00;100931.34;5014499;28;20134;-71
2023/06/20 09:50:16;;;;;;;34.33;24.23;;;;;;;20.29;100.00;100925.09;5014728;28;20071;-71
2023/06/20 09:52:46;;;;;;;32.22;24.05;;;;;;;20.23;100.00;100917.81;5011366;28;20041;-72
2023/06/20 09:55:15;;;;;;;30.90;25.95;;;;;;;20.07;100.00;100926.50;5014437;28;20502;-72
2023/06/20 09:57:45;;;;;;;37.08;25.33;;;;;;;20.00;100.00;100918.34;5014803;28;20046;-72
2023/06/20 10:00:15;;;;;;;44.28;29.13;;;;;;;19.79;100.00;100905.91;5014236;28;20042;-72
2023/06/20 10:02:47;;;;;;;38.55;27.55;;;;;;;19.71;100.00;100911.59;5014201;28;20064;-71
2023/06/20 10:05:16;;;;;;;36.30;26.10;;;;;;;19.45;100.00;100902.47;5014365;28;20104;-73
2023/06/20 10:07:44;;;;;;;39.72;30.83;;;;;;;19.38;100.00;100895.34;5014601;28;20053;-71
2023/06/20 10:10:12;;;;;;;37.45;29.05;;;;;;;19.22;100.00;100894.78;5014392;28;20041;-74
2023/06/20 10:12:41;;;;;;;36.65;29.55;;;;;;;19.07;100.00;100891.50;5013842;28;20051;-71
2023/06/20 10:15:09;;;;;;;45.53;31.17;;;;;;;19.00;100.00;100896.94;5014349;28;20482;-71
2023/06/20 10:17:48;;;;;;;38.40;30.23;;;;;;;18.98;100.00;100909.91;5013814;28;20058;-71
2023/06/20 10:20:28;;;;;;;42.95;32.97;;;;;;;18.95;100.00;100904.03;5014027;28;20500;-67
2023/06/20 10:22:58;;;;;;;46.50;35.60;;;;;;;18.94;100.00;100905.94;5014182;28;20053;-69
2023/06/20 10:25:26;;;;;;;44.20;34.50;;;;;;;18.95;100.00;100907.59;5014005;28;20050;-68
2023/06/20 10:27:58;;;;;;;39.15;34.97;;;;;;;18.72;100.00;100907.16;5013739;28;20469;-70
2023/06/20 10:30:49;;;;;;;53.03;37.28;;;;;;;18.57;100.00;100903.81;4996929;28;20068;-69
2023/06/20 10:33:37;;;;;;;54.88;39.55;;;;;;;18.54;100.00;100895.03;5013725;28;20104;-70
2023/06/20 10:36:08;;;;;;;46.90;38.67;;;;;;;18.57;100.00;100887.53;5004343;28;20057;-70
2023/06/20 10:39:06;;;;;;;54.47;41.95;;;;;;;18.53;100.00;100882.50;4994501;28;20418;-70
2023/06/20 10:41:33;;;;;;;54.95;42.15;;;;;;;18.51;100.00;100871.03;4994566;28;20046;-70
2023/06/20 10:44:01;;;;;;;55.78;43.30;;;;;;;18.46;100.00;100881.66;4994217;28;20485;-69
2023/06/20 10:46:36;;;;;;;54.75;45.42;;;;;;;18.44;100.00;100866.63;4993955;28;20517;-71
2023/06/20 10:49:04;;;;;;;55.63;45.75;;;;;;;18.41;100.00;100867.03;4994392;28;20451;-71
2023/06/20 10:51:41;;;;;;;50.67;43.75;;;;;;;18.37;100.00;100865.78;4994459;28;20050;-71
2023/06/20 10:54:12;;;;;;;56.78;45.80;;;;;;;18.32;100.00;100863.69;4994166;28;20515;-70
2023/06/20 10:56:39;;;;;;;56.10;45.17;;;;;;;18.21;100.00;100862.44;4994029;28;20042;-70
2023/06/20 10:59:14;;;;;;;52.47;42.35;;;;;;;18.17;100.00;100863.03;4994291;28;20050;-71
2023/06/20 11:01:41;;;;;;;59.53;44.80;;;;;;;18.16;100.00;100861.38;4993813;28;20050;-71
2023/06/20 11:04:10;;;;;;;66.13;51.28;;;;;;;18.24;100.00;100853.06;4993769;28;20426;-70
2023/06/20 11:06:37;;;;;;;57.78;47.80;;;;;;;18.27;100.00;100844.47;4994152;28;20412;-71
2023/06/20 11:09:04;;;;;;;61.38;48.20;;;;;;;18.33;100.00;100850.94;4994257;28;20050;-70